Terminal Aerodrome Forecast
Issued by NWS Miami, FL

Home | Current Version | Previous Version | Text Only | Print | Product List | Glossary On
Versions: 1 2 3 4 5 6 7 8 9 10 11 12 13 14 15 16 17 18 19 20 21 22 23 24 25 26 27
000
FTUS42 KMFL 101304 AAA
TAFPBI
TAF AMD
KPBI 101304Z 1013/1112 32007KT 6SM BR VCSH FEW008 SCT020 BKN035
      TEMPO 1013/1014 3SM -SHRA BR SCT005 BKN025
     FM101400 05018G28KT P6SM VCSH FEW010 SCT020 BKN050=

USA.gov is the U.S. government's official web portal to all federal, state and local government web resources and services.